createdAt,value
2023-02-08T00:02:10.122Z,-5.29
2023-02-08T00:07:14.702Z,-5.29
2023-02-08T00:12:19.287Z,-5.19
2023-02-08T00:17:23.895Z,-5.07
2023-02-08T00:22:28.465Z,-4.86
2023-02-08T00:27:35.049Z,-4.68
2023-02-08T00:32:39.627Z,-4.45
2023-02-08T00:37:44.359Z,-4.19
2023-02-08T00:42:48.980Z,-3.94
2023-02-08T00:47:54.576Z,-3.69
2023-02-08T00:53:01.039Z,-3.45
2023-02-08T00:58:05.025Z,-3.21
2023-02-08T01:03:09.604Z,-3.01
2023-02-08T01:08:14.162Z,-2.76
2023-02-08T01:13:18.173Z,-2.48
2023-02-08T01:18:22.733Z,-2.26
2023-02-08T01:23:27.220Z,-2.10
2023-02-08T01:28:31.847Z,-1.85
2023-02-08T01:33:36.057Z,-1.60
2023-02-08T01:38:40.779Z,-1.34
2023-02-08T01:44:04.140Z,-1.10
2023-02-08T01:49:26.773Z,-0.88
2023-02-08T01:54:39.459Z,-0.66
2023-02-08T01:59:55.780Z,-0.41
2023-02-08T02:05:03.952Z,-0.17
2023-02-08T02:10:28.473Z,0.08
2023-02-08T02:15:33.881Z,0.28
2023-02-08T02:20:55.178Z,0.52
2023-02-08T02:26:36.550Z,0.74
2023-02-08T02:32:04.457Z,0.92
2023-02-08T02:37:23.986Z,1.16
2023-02-08T02:43:06.775Z,1.38
2023-02-08T02:48:17.837Z,1.57
2023-02-08T02:53:27.302Z,1.82
2023-02-08T02:58:34.274Z,2.08
2023-02-08T03:03:38.977Z,2.25
2023-02-08T03:09:15.894Z,2.39
2023-02-08T03:15:00.125Z,2.54
2023-02-08T03:20:07.983Z,2.69
2023-02-08T03:25:35.184Z,2.80
2023-02-08T03:31:09.684Z,2.94
2023-02-08T03:36:52.225Z,3.05
2023-02-08T03:42:03.159Z,3.16
2023-02-08T03:47:20.285Z,3.34
2023-02-08T03:52:28.145Z,3.49
2023-02-08T03:57:42.442Z,3.62
2023-02-08T04:02:56.194Z,3.77
2023-02-08T04:08:01.299Z,3.76
2023-02-08T04:13:06.547Z,3.86
2023-02-08T04:18:11.342Z,3.96
2023-02-08T04:23:16.426Z,4.08
2023-02-08T04:28:21.543Z,4.18
2023-02-08T04:33:26.783Z,4.30
2023-02-08T04:38:32.424Z,4.37
2023-02-08T04:43:37.603Z,4.44
2023-02-08T04:48:42.383Z,4.53
2023-02-08T04:53:47.518Z,4.62
2023-02-08T04:58:52.643Z,4.69
2023-02-08T05:03:58.721Z,4.72
2023-02-08T05:09:04.350Z,4.80
2023-02-08T05:14:10.635Z,4.91
2023-02-08T05:19:15.749Z,4.96
2023-02-08T05:24:20.907Z,5.00
2023-02-08T05:29:26.283Z,5.09
2023-02-08T05:34:31.247Z,5.15
2023-02-08T05:39:36.739Z,5.22
2023-02-08T05:44:41.884Z,5.24
2023-02-08T05:49:48.772Z,5.23
2023-02-08T05:54:55.715Z,5.25
2023-02-08T06:00:00.988Z,5.31
2023-02-08T06:05:09.596Z,5.39
2023-02-08T06:10:15.228Z,5.50
2023-02-08T06:15:20.916Z,5.57
2023-02-08T06:20:26.228Z,5.59
2023-02-08T06:25:31.546Z,5.52
2023-02-08T06:30:36.678Z,5.40
2023-02-08T06:35:41.934Z,5.24
2023-02-08T06:40:49.210Z,5.17
2023-02-08T06:45:54.482Z,5.14
2023-02-08T06:50:59.747Z,5.08
2023-02-08T06:56:04.982Z,5.04
2023-02-08T07:01:14.891Z,5.06
2023-02-08T07:06:22.086Z,5.05
2023-02-08T07:11:28.328Z,5.06
2023-02-08T07:16:32.984Z,5.13
2023-02-08T07:21:37.751Z,5.21
2023-02-08T07:26:42.414Z,5.27
2023-02-08T07:31:47.155Z,5.30
2023-02-08T07:36:51.805Z,5.32
2023-02-08T07:41:57.470Z,5.38
2023-02-08T07:47:06.367Z,5.39
2023-02-08T07:52:11.187Z,5.43
2023-02-08T07:57:22.175Z,5.41
2023-02-08T08:10:25.809Z,4.93
2023-02-08T08:15:31.345Z,4.94
2023-02-08T08:20:39.293Z,4.95
2023-02-08T08:25:44.234Z,4.94
2023-02-08T08:30:49.551Z,4.90
2023-02-08T08:35:54.760Z,4.86
2023-02-08T08:40:59.794Z,4.83
2023-02-08T08:46:06.384Z,4.80
2023-02-08T08:51:11.636Z,4.71
2023-02-08T08:56:16.699Z,4.58
2023-02-08T09:01:21.925Z,4.41
2023-02-08T09:06:27.193Z,4.25
2023-02-08T09:11:34.403Z,4.13
2023-02-08T09:16:39.485Z,4.04
2023-02-08T09:21:44.934Z,3.92
2023-02-08T09:26:51.375Z,3.83
2023-02-08T09:31:56.770Z,3.75
2023-02-08T09:37:01.930Z,3.65
2023-02-08T09:56:07.000Z,2.57
2023-02-08T10:01:34.008Z,2.67
2023-02-08T10:06:39.727Z,2.69
2023-02-08T10:12:09.655Z,2.66
2023-02-08T10:17:51.001Z,2.60
2023-02-08T10:23:12.128Z,2.54
2023-02-08T10:28:41.420Z,2.44
2023-02-08T10:34:13.378Z,2.34
2023-02-08T10:39:35.292Z,2.24
2023-02-08T10:45:27.134Z,2.16
2023-02-08T10:50:41.082Z,2.02
2023-02-08T10:55:48.673Z,1.94
2023-02-08T11:00:54.484Z,1.84
2023-02-08T11:05:59.588Z,1.74
2023-02-08T11:11:12.264Z,1.62
2023-02-08T11:16:29.160Z,1.46
2023-02-08T11:21:36.262Z,1.27
2023-02-08T11:26:42.078Z,1.15
2023-02-08T11:32:15.268Z,1.05
2023-02-08T11:37:29.906Z,0.93
2023-02-08T11:42:48.565Z,0.90
2023-02-08T11:47:54.642Z,0.87
2023-02-08T11:53:06.127Z,0.88
2023-02-08T11:58:26.285Z,0.83
2023-02-08T12:03:38.959Z,0.71
2023-02-08T12:09:03.295Z,0.51
2023-02-08T12:14:32.281Z,0.34
2023-02-08T12:20:05.591Z,0.03
2023-02-08T12:25:32.253Z,-0.23
2023-02-08T12:30:47.188Z,-0.46
2023-02-08T12:36:14.980Z,-0.63
2023-02-08T12:41:20.801Z,-0.79
2023-02-08T12:46:48.115Z,-0.86
2023-02-08T12:52:20.828Z,-0.88
2023-02-08T12:57:31.778Z,-0.86
2023-02-08T13:02:47.420Z,-0.83
2023-02-08T13:08:19.050Z,-0.85
2023-02-08T13:13:30.716Z,-0.86
2023-02-08T13:18:39.149Z,-0.88
2023-02-08T13:23:52.878Z,-0.85
2023-02-08T13:29:02.469Z,-0.82
2023-02-08T13:34:20.614Z,-0.78
2023-02-08T13:39:41.348Z,-0.81
2023-02-08T13:44:56.926Z,-0.85
2023-02-08T13:50:08.720Z,-0.88
2023-02-08T13:55:37.272Z,-0.91
2023-02-08T14:01:02.677Z,-0.90
2023-02-08T14:06:30.244Z,-0.86
2023-02-08T14:11:46.597Z,-0.80
2023-02-08T14:17:11.515Z,-0.77
2023-02-08T14:22:16.582Z,-0.79
2023-02-08T14:27:39.945Z,-0.80
2023-02-08T14:32:47.478Z,-0.85
2023-02-08T14:38:24.835Z,-0.91
2023-02-08T14:44:03.817Z,-1.00
2023-02-08T14:49:18.280Z,-1.08
2023-02-08T14:54:51.185Z,-1.08
2023-02-08T15:00:00.904Z,-1.11
2023-02-08T15:05:10.476Z,-1.08
2023-02-08T15:10:18.951Z,-1.06
2023-02-08T15:15:48.735Z,-1.05
2023-02-08T15:21:21.004Z,-1.02
2023-02-08T15:26:26.107Z,-1.02
2023-02-08T15:31:37.039Z,-0.99
2023-02-08T15:36:43.636Z,-0.97
2023-02-08T15:41:52.488Z,-0.88
2023-02-08T15:47:02.082Z,-0.83
2023-02-08T15:52:09.510Z,-0.82
2023-02-08T15:57:35.169Z,-0.79
2023-02-08T16:02:40.277Z,-0.80
2023-02-08T16:07:48.990Z,-0.72
2023-02-08T16:13:00.588Z,-0.65
2023-02-08T16:18:06.944Z,-0.59
2023-02-08T16:23:29.222Z,-0.49
2023-02-08T16:28:35.724Z,-0.45
2023-02-08T16:33:41.059Z,-0.42
2023-02-08T16:39:24.054Z,-0.45
2023-02-08T16:44:35.268Z,-0.47
2023-02-08T16:49:42.378Z,-0.49
2023-02-08T16:54:47.580Z,-0.49
2023-02-08T16:59:53.116Z,-0.51
2023-02-08T17:04:57.728Z,-0.48
2023-02-08T17:10:02.400Z,-0.45
2023-02-08T17:15:07.414Z,-0.43
2023-02-08T17:20:34.402Z,-0.40
2023-02-08T17:25:40.870Z,-0.39
2023-02-08T17:30:46.230Z,-0.39
2023-02-08T17:35:54.191Z,-0.38
2023-02-08T17:41:01.614Z,-0.36
2023-02-08T17:46:21.581Z,-0.39
2023-02-08T17:51:29.194Z,-0.42
2023-02-08T17:56:37.658Z,-0.43
2023-02-08T18:01:42.374Z,-0.42
2023-02-08T18:06:47.811Z,-0.44
2023-02-08T18:11:52.521Z,-0.46
2023-02-08T18:16:59.615Z,-0.44
2023-02-08T18:22:06.716Z,-0.43
2023-02-08T18:27:11.674Z,-0.43
2023-02-08T18:32:17.227Z,-0.46
2023-02-08T18:37:22.973Z,-0.45
2023-02-08T18:42:27.889Z,-0.47
2023-02-08T18:47:32.830Z,-0.50
2023-02-08T18:52:38.521Z,-0.52
2023-02-08T18:57:45.265Z,-0.53
2023-02-08T19:02:50.300Z,-0.54
2023-02-08T19:07:55.083Z,-0.55
2023-02-08T19:13:00.670Z,-0.54
2023-02-08T19:18:06.558Z,-0.54
2023-02-08T19:23:11.646Z,-0.51
2023-02-08T19:28:16.192Z,-0.47
2023-02-08T19:33:21.321Z,-0.47
2023-02-08T19:38:26.543Z,-0.45
2023-02-08T19:43:33.471Z,-0.45
2023-02-08T19:48:38.397Z,-0.46
2023-02-08T19:53:43.209Z,-0.47
2023-02-08T19:58:50.194Z,-0.48
2023-02-08T20:03:56.270Z,-0.49
2023-02-08T20:09:07.060Z,-0.52
2023-02-08T20:14:15.718Z,-0.52
2023-02-08T20:19:20.460Z,-0.54
2023-02-08T20:24:25.880Z,-0.51
2023-02-08T20:29:31.917Z,-0.52
2023-02-08T20:34:38.152Z,-0.50
2023-02-08T20:39:44.355Z,-0.49
2023-02-08T20:44:51.007Z,-0.48
2023-02-08T20:49:56.168Z,-0.46
2023-02-08T20:55:01.396Z,-0.51
2023-02-08T21:00:07.136Z,-0.53
2023-02-08T21:05:11.996Z,-0.56
2023-02-08T21:10:17.707Z,-0.57
2023-02-08T21:15:22.542Z,-0.57
2023-02-08T21:20:27.592Z,-0.58
2023-02-08T21:25:33.297Z,-0.55
2023-02-08T21:30:38.329Z,-0.55
2023-02-08T21:35:43.181Z,-0.55
2023-02-08T21:40:48.153Z,-0.53
2023-02-08T21:45:53.031Z,-0.52
2023-02-08T21:51:20.399Z,-0.54
2023-02-08T21:56:26.017Z,-0.54
2023-02-08T22:01:31.395Z,-0.58
2023-02-08T22:06:36.527Z,-0.60
2023-02-08T22:11:43.898Z,-0.64
2023-02-08T22:16:49.259Z,-0.62
2023-02-08T22:21:54.348Z,-0.62
2023-02-08T22:26:59.467Z,-0.59
2023-02-08T22:32:04.847Z,-0.55
2023-02-08T22:37:11.674Z,-0.51
2023-02-08T22:42:16.872Z,-0.52
2023-02-08T22:47:23.483Z,-0.50
2023-02-08T22:52:29.074Z,-0.51
2023-02-08T22:57:37.612Z,-0.51
2023-02-08T23:02:43.229Z,-0.57
2023-02-08T23:07:48.400Z,-0.65
2023-02-08T23:12:53.249Z,-0.71
2023-02-08T23:17:59.439Z,-0.74
2023-02-08T23:23:04.409Z,-0.83
2023-02-08T23:28:12.223Z,-0.81
2023-02-08T23:33:17.305Z,-0.75
2023-02-08T23:38:22.384Z,-0.68
2023-02-08T23:43:28.302Z,-0.64
2023-02-08T23:48:33.396Z,-0.62
2023-02-08T23:53:39.647Z,-0.52
2023-02-08T23:58:46.597Z,-0.44
